Time;durP1;ratioP1;P1;durP2;ratioP2;P2;SDS_P1;SDS_P2;PMS_P1;PMS_P2;Temp;Humidity;BMP_temperature;BMP_pressure;BME280_temperature;BME280_humidity;BME280_pressure;Samples;Min_cycle;Max_cycle;Signal;HPM_P1;HPM_P2
2022/05/27 00:02:15;;;;;;;2.85;0.40;;;17.40;94.00;;;;;;10286003;28;20169;-87
2022/05/27 00:07:16;;;;;;;1.80;0.40;;;17.30;94.40;;;;;;10276937;28;20049;-87
2022/05/27 00:12:18;;;;;;;1.27;0.40;;;17.20;94.70;;;;;;10280471;28;20489;-87
2022/05/27 00:17:20;;;;;;;10.05;0.52;;;17.20;95.20;;;;;;10293185;28;20374;-87
2022/05/27 00:22:22;;;;;;;2.05;0.40;;;17.10;95.60;;;;;;10271322;28;20046;-87
2022/05/27 00:27:24;;;;;;;1.08;0.45;;;17.10;96.20;;;;;;10282757;28;20061;-87
2022/05/27 00:32:26;;;;;;;0.88;0.40;;;17.00;96.40;;;;;;10295252;28;20058;-87
2022/05/27 00:37:28;;;;;;;3.25;0.35;;;16.80;96.90;;;;;;10313583;28;20061;-87
2022/05/27 00:42:30;;;;;;;2.67;0.55;;;16.70;97.90;;;;;;10285584;28;20057;-88
2022/05/27 00:47:35;;;;;;;7.50;0.60;;;16.60;98.80;;;;;;10285763;28;20932;-88
2022/05/27 00:52:39;;;;;;;2.33;0.40;;;16.40;99.70;;;;;;10288644;28;20399;-88
2022/05/27 00:57:46;;;;;;;1.23;0.30;;;16.50;99.90;;;;;;10295848;28;20039;-87
2022/05/27 01:02:49;;;;;;;1.27;0.47;;;16.50;99.90;;;;;;10300820;28;20069;-87
2022/05/27 01:07:58;;;;;;;1.45;0.40;;;16.40;99.90;;;;;;10306867;28;20054;-87
2022/05/27 01:13:35;;;;;;;2.53;0.30;;;16.40;99.90;;;;;;10302226;28;20053;-87
2022/05/27 01:24:43;;;;;;;5.07;0.35;;;16.20;99.90;;;;;;10229658;28;20047;-88
2022/05/27 01:30:15;;;;;;;7.30;0.80;;;16.20;99.90;;;;;;10217775;28;20506;-87
2022/05/27 01:35:32;;;;;;;1.75;0.35;;;16.10;99.90;;;;;;10218096;28;20047;-87
2022/05/27 01:40:58;;;;;;;2.10;0.50;;;16.10;99.90;;;;;;10200066;28;20055;-88
2022/05/27 01:46:23;;;;;;;4.10;0.30;;;15.90;99.90;;;;;;10222503;28;20542;-87
2022/05/27 01:51:40;;;;;;;2.03;1.05;;;15.80;99.90;;;;;;10219754;28;20043;-87
2022/05/27 01:57:05;;;;;;;1.73;0.45;;;15.80;99.90;;;;;;10218859;28;20051;-87
2022/05/27 02:02:19;;;;;;;3.40;0.68;;;15.90;99.90;;;;;;10228550;28;20492;-87
2022/05/27 02:07:32;;;;;;;3.83;0.32;;;15.90;99.90;;;;;;10203641;28;20043;-88
2022/05/27 02:12:40;;;;;;;1.70;0.22;;;15.80;99.90;;;;;;10221286;28;20050;-88
2022/05/27 02:17:49;;;;;;;1.50;0.55;;;15.90;99.90;;;;;;10244212;28;20069;-87
2022/05/27 02:23:03;;;;;;;3.58;0.43;;;15.70;99.90;;;;;;10273719;28;20039;-87
2022/05/27 02:28:12;;;;;;;2.72;0.50;;;15.70;99.90;;;;;;10262383;28;20059;-87
2022/05/27 02:38:45;;;;;;;2.42;0.32;;;15.70;99.90;;;;;;10255345;28;20150;-86
2022/05/27 02:44:24;;;;;;;2.55;0.40;;;15.70;99.90;;;;;;10258118;28;20046;-86
2022/05/27 02:49:47;;;;;;;2.00;0.50;;;15.70;99.90;;;;;;10257073;28;20057;-87
2022/05/27 02:54:52;;;;;;;1.95;0.50;;;15.70;99.90;;;;;;10258270;28;20398;-87
2022/05/27 02:59:57;;;;;;;1.23;0.40;;;15.70;99.90;;;;;;10263909;28;20082;-87
2022/05/27 03:05:00;;;;;;;4.10;0.40;;;15.70;99.90;;;;;;10265668;28;20491;-87
2022/05/27 03:10:26;;;;;;;3.42;0.45;;;15.60;99.90;;;;;;10255267;28;20063;-87
2022/05/27 03:15:35;;;;;;;3.60;0.40;;;15.50;99.90;;;;;;10280022;28;20058;-87
2022/05/27 03:20:57;;;;;;;3.50;0.50;;;15.50;99.90;;;;;;10285896;28;20046;-87
2022/05/27 03:26:13;;;;;;;2.05;0.40;;;15.50;99.90;;;;;;10283596;28;20042;-88
2022/05/27 03:31:37;;;;;;;1.23;0.40;;;15.40;99.90;;;;;;10282130;28;20054;-88
2022/05/27 03:36:50;;;;;;;4.57;0.50;;;15.40;99.90;;;;;;10298172;28;20111;-88
2022/05/27 03:41:58;;;;;;;2.58;0.40;;;15.30;99.90;;;;;;10292835;28;20453;-88
2022/05/27 03:47:00;;;;;;;2.10;0.40;;;15.30;99.90;;;;;;10288497;28;20416;-87
2022/05/27 03:52:14;;;;;;;4.95;0.82;;;15.30;99.90;;;;;;10307790;28;20121;-88
2022/05/27 03:57:15;;;;;;;2.15;0.70;;;15.20;99.90;;;;;;10306385;28;20489;-88
2022/05/27 04:02:17;;;;;;;3.20;0.40;;;15.20;99.90;;;;;;10271656;28;20039;-87
2022/05/27 04:07:19;;;;;;;0.95;0.50;;;15.20;99.90;;;;;;10305608;28;20030;-88
2022/05/27 04:12:21;;;;;;;2.78;0.82;;;15.20;99.90;;;;;;10272381;28;20126;-89
2022/05/27 04:17:32;;;;;;;1.77;0.80;;;15.10;99.90;;;;;;10229675;28;20050;-89
2022/05/27 04:22:34;;;;;;;2.17;0.55;;;15.10;99.90;;;;;;10145349;28;20130;-88
2022/05/27 04:27:37;;;;;;;5.53;0.88;;;15.10;99.90;;;;;;10256943;28;20184;-88
2022/05/27 04:32:39;;;;;;;2.90;0.60;;;15.30;99.90;;;;;;10266228;28;20094;-87
2022/05/27 04:37:41;;;;;;;3.58;0.50;;;15.30;99.90;;;;;;10260030;28;20051;-87
2022/05/27 04:42:44;;;;;;;2.00;0.52;;;15.50;99.90;;;;;;10254037;28;20049;-87
2022/05/27 04:47:47;;;;;;;2.30;0.60;;;15.40;99.90;;;;;;10262070;28;20361;-87
2022/05/27 04:52:51;;;;;;;2.65;0.43;;;15.50;99.90;;;;;;10274332;28;21870;-88
2022/05/27 04:57:54;;;;;;;4.05;0.60;;;15.40;99.90;;;;;;10254875;28;20057;-88
2022/05/27 05:02:57;;;;;;;4.30;0.43;;;15.60;99.90;;;;;;10235673;28;20129;-88
2022/05/27 05:08:22;;;;;;;0.45;0.43;;;15.60;99.90;;;;;;10128030;28;20047;-89
2022/05/27 05:13:25;;;;;;;3.25;0.40;;;15.70;99.90;;;;;;10171926;28;20039;-88
2022/05/27 05:18:28;;;;;;;3.00;0.50;;;15.80;99.90;;;;;;10206721;28;20535;-88
2022/05/27 05:23:35;;;;;;;5.53;0.98;;;15.80;99.90;;;;;;10173436;28;20054;-89
2022/05/27 05:28:50;;;;;;;6.40;0.60;;;16.00;99.90;;;;;;10124857;28;20087;-89
2022/05/27 05:33:58;;;;;;;2.17;0.50;;;16.10;99.90;;;;;;10182429;28;20138;-89
2022/05/27 05:39:04;;;;;;;0.73;0.40;;;16.10;99.90;;;;;;9957401;28;20078;-88
2022/05/27 05:44:09;;;;;;;1.02;0.50;;;16.00;99.90;;;;;;10106494;28;20100;-89
2022/05/27 05:49:39;;;;;;;1.15;0.47;;;16.20;99.90;;;;;;10122573;28;20058;-89
2022/05/27 05:54:43;;;;;;;3.47;0.73;;;16.20;99.90;;;;;;10056218;28;20046;-89
2022/05/27 05:59:49;;;;;;;3.00;0.50;;;16.20;99.90;;;;;;10068531;28;20052;-90
2022/05/27 06:04:56;;;;;;;1.45;0.30;;;16.20;99.90;;;;;;10208244;28;20047;-89
2022/05/27 06:09:59;;;;;;;0.93;0.50;;;16.20;99.90;;;;;;10205380;28;20042;-89
2022/05/27 06:15:04;;;;;;;1.92;0.50;;;16.20;99.90;;;;;;10232533;28;20049;-89
2022/05/27 06:20:08;;;;;;;0.85;0.40;;;16.30;99.90;;;;;;10252516;28;20038;-89
2022/05/27 06:25:11;;;;;;;2.13;0.50;;;16.40;99.90;;;;;;10237303;28;20079;-88
2022/05/27 06:35:51;;;;;;;;;;;16.60;99.90;;;;;;10169648;28;20051;-89
2022/05/27 06:40:55;;;;;;;0.90;0.32;;;16.70;99.90;;;;;;10264520;28;19923;-89
2022/05/27 06:46:03;;;;;;;1.48;0.30;;;16.80;99.90;;;;;;10188100;28;20054;-89
2022/05/27 06:51:06;;;;;;;1.08;0.25;;;16.90;99.90;;;;;;10261486;28;20074;-89
2022/05/27 06:56:09;;;;;;;1.23;0.38;;;17.00;99.90;;;;;;10255289;28;20122;-89
2022/05/27 07:01:12;;;;;;;2.58;0.38;;;17.00;99.90;;;;;;10246846;28;20043;-88
2022/05/27 07:06:14;;;;;;;1.17;0.30;;;17.00;99.90;;;;;;10253540;28;20701;-89
2022/05/27 07:11:15;;;;;;;1.42;0.22;;;17.10;99.90;;;;;;10245572;28;20050;-89
2022/05/27 07:16:17;;;;;;;0.80;0.20;;;16.90;99.90;;;;;;10251827;28;20046;-89
2022/05/27 07:21:20;;;;;;;3.58;0.20;;;17.10;99.90;;;;;;10287371;28;20048;-89
2022/05/27 07:26:23;;;;;;;0.45;0.17;;;17.20;99.90;;;;;;10283486;28;20050;-89
2022/05/27 07:31:25;;;;;;;2.00;0.20;;;17.00;99.90;;;;;;10287280;28;20046;-88
2022/05/27 07:36:27;;;;;;;1.00;0.10;;;17.10;99.90;;;;;;10287038;28;20461;-88
2022/05/27 07:41:29;;;;;;;0.13;0.10;;;17.10;99.90;;;;;;10209342;28;20043;-89
2022/05/27 07:46:36;;;;;;;0.08;0.00;;;17.10;99.90;;;;;;10192243;28;20417;-90
2022/05/27 07:51:40;;;;;;;2.08;0.30;;;17.20;99.90;;;;;;10108366;28;20043;-90
2022/05/27 07:56:54;;;;;;;1.05;0.22;;;17.40;99.90;;;;;;10069226;28;20709;-90
2022/05/27 08:02:02;;;;;;;2.33;0.10;;;17.60;99.90;;;;;;10017209;28;20696;-90
2022/05/27 08:07:07;;;;;;;0.98;0.10;;;17.60;99.90;;;;;;9978575;28;20116;-90
2022/05/27 08:12:19;;;;;;;0.52;0.10;;;17.70;99.90;;;;;;10124088;28;20054;-90
2022/05/27 08:18:10;;;;;;;4.35;0.10;;;17.70;99.80;;;;;;10035325;28;20076;-90
2022/05/27 08:23:15;;;;;;;0.82;0.10;;;17.80;99.80;;;;;;10025023;28;20042;-90
2022/05/27 08:28:26;;;;;;;2.35;0.10;;;17.70;99.50;;;;;;10107600;28;20581;-90
2022/05/27 08:40:01;;;;;;;0.93;0.10;;;17.70;99.90;;;;;;9963954;28;20056;-90
2022/05/27 08:45:47;;;;;;;0.68;0.10;;;17.70;99.90;;;;;;10002088;28;20117;-89
2022/05/27 08:51:01;;;;;;;0.40;0.10;;;17.80;99.90;;;;;;10019517;28;20045;-89
2022/05/27 09:01:31;;;;;;;0.10;0.00;;;17.90;99.90;;;;;;10176743;28;20520;-90
2022/05/27 09:07:03;;;;;;;0.85;0.03;;;17.80;99.90;;;;;;10069471;28;20036;-89
2022/05/27 09:12:46;;;;;;;0.20;0.10;;;17.90;99.90;;;;;;10018841;28;20048;-90
2022/05/27 09:18:45;;;;;;;0.52;0.10;;;18.10;99.90;;;;;;9885603;28;20072;-90
2022/05/27 09:24:47;;;;;;;0.38;0.08;;;18.40;99.40;;;;;;9993265;28;20083;-90
2022/05/27 09:29:55;;;;;;;1.17;0.10;;;18.20;98.90;;;;;;9956258;28;20441;-90
2022/05/27 09:35:33;;;;;;;0.00;0.00;;;18.10;99.90;;;;;;9958857;28;20123;-90
2022/05/27 09:40:56;;;;;;;0.40;0.10;;;18.40;99.90;;;;;;9977822;28;20052;-90
2022/05/27 09:46:04;;;;;;;0.93;0.10;;;18.10;99.30;;;;;;10001153;28;20052;-90
2022/05/27 09:51:10;;;;;;;1.67;0.10;;;17.90;99.90;;;;;;10035912;28;20107;-90
2022/05/27 09:57:02;;;;;;;1.10;0.10;;;17.40;99.90;;;;;;9856083;28;20051;-90
2022/05/27 10:02:36;;;;;;;0.98;0.10;;;17.30;99.90;;;;;;9889088;28;20058;-90
2022/05/27 10:08:32;;;;;;;0.38;0.00;;;17.60;99.90;;;;;;9907944;28;20143;-90
2022/05/27 10:14:07;;;;;;;1.48;0.10;;;17.50;99.90;;;;;;10044726;28;20059;-90
2022/05/27 10:19:29;;;;;;;0.30;0.00;;;17.60;99.90;;;;;;10040690;28;20569;-90
2022/05/27 10:25:12;;;;;;;0.75;0.00;;;17.70;99.90;;;;;;10080315;28;20130;-90
2022/05/27 10:30:33;;;;;;;1.65;0.00;;;17.80;99.90;;;;;;10035585;28;20108;-90
2022/05/27 10:35:37;;;;;;;0.15;0.00;;;18.30;99.90;;;;;;10062780;28;20073;-90
2022/05/27 10:41:01;;;;;;;0.03;0.00;;;18.90;99.90;;;;;;9993725;28;20055;-91
2022/05/27 10:46:07;;;;;;;0.00;0.00;;;19.20;99.90;;;;;;9938267;29;20029;-90
2022/05/27 10:51:44;;;;;;;0.00;0.00;;;19.30;99.90;;;;;;9941670;28;20112;-90
2022/05/27 11:03:17;;;;;;;0.80;0.00;;;19.00;98.90;;;;;;10073435;29;20074;-89
2022/05/27 11:08:41;;;;;;;0.10;0.10;;;18.70;98.20;;;;;;10089623;28;20059;-90
2022/05/27 11:19:53;;;;;;;1.25;0.00;;;18.30;99.70;;;;;;10250956;28;20097;-89
2022/05/27 11:25:15;;;;;;;0.00;0.00;;;18.20;99.70;;;;;;10254166;28;20463;-90
2022/05/27 11:30:45;;;;;;;0.20;0.10;;;18.20;99.90;;;;;;10203750;28;20520;-90
2022/05/27 11:36:10;;;;;;;0.10;0.00;;;18.00;99.90;;;;;;10039898;28;21042;-89
2022/05/27 11:41:42;;;;;;;0.15;0.15;;;18.00;99.90;;;;;;10232896;28;20047;-89
2022/05/27 11:47:25;;;;;;;0.00;0.00;;;18.00;99.90;;;;;;10233090;28;20062;-90
2022/05/27 11:52:59;;;;;;;0.20;0.10;;;17.60;99.90;;;;;;10209929;28;20094;-89
2022/05/27 11:58:31;;;;;;;0.40;0.20;;;17.40;99.90;;;;;;10165817;28;20051;-90
2022/05/27 12:03:58;;;;;;;0.75;0.20;;;17.60;99.90;;;;;;10160431;28;20061;-90
2022/05/27 12:09:07;;;;;;;0.90;0.30;;;17.50;99.90;;;;;;10274538;28;20053;-89
2022/05/27 12:14:18;;;;;;;0.30;0.15;;;17.60;99.90;;;;;;10232296;28;20134;-89
2022/05/27 12:19:34;;;;;;;0.85;0.20;;;18.30;98.70;;;;;;10246627;28;20112;-89
2022/05/27 12:24:47;;;;;;;0.22;0.22;;;18.70;98.30;;;;;;10220151;28;20130;-89
2022/05/27 12:29:51;;;;;;;2.10;0.30;;;19.00;94.10;;;;;;10155531;28;20053;-89
2022/05/27 12:35:18;;;;;;;0.70;0.40;;;18.90;92.40;;;;;;10197163;28;20089;-89
2022/05/27 12:40:32;;;;;;;1.95;0.30;;;19.40;92.50;;;;;;10243198;28;20057;-89
2022/05/27 12:46:13;;;;;;;0.70;0.40;;;19.60;90.20;;;;;;10200072;28;20129;-89
2022/05/27 12:51:18;;;;;;;3.70;0.43;;;20.00;84.40;;;;;;10242610;28;20035;-90
2022/05/27 13:02:14;;;;;;;0.80;0.40;;;20.00;79.30;;;;;;10281021;28;20055;-89
2022/05/27 13:07:41;;;;;;;1.33;0.30;;;20.10;75.90;;;;;;10273764;28;20107;-88
2022/05/27 13:12:49;;;;;;;0.63;0.40;;;19.80;74.20;;;;;;10257405;28;20421;-89
2022/05/27 13:18:17;;;;;;;0.50;0.40;;;20.20;72.00;;;;;;10271453;28;20066;-88
2022/05/27 13:23:23;;;;;;;1.42;0.50;;;19.60;72.20;;;;;;10258773;28;20118;-88
2022/05/27 13:28:47;;;;;;;1.10;0.55;;;20.00;72.00;;;;;;10279965;28;20078;-88
2022/05/27 13:34:32;;;;;;;0.43;0.35;;;20.20;73.70;;;;;;10273405;28;20061;-88
2022/05/27 13:39:43;;;;;;;1.30;0.40;;;20.30;72.20;;;;;;10260723;28;20055;-88
2022/05/27 13:44:46;;;;;;;1.00;0.60;;;20.70;67.70;;;;;;10266240;28;20091;-88
2022/05/27 13:50:28;;;;;;;1.52;0.50;;;20.70;68.20;;;;;;10263489;28;20046;-87
2022/05/27 13:55:30;;;;;;;1.55;0.65;;;20.40;68.10;;;;;;10267769;28;20498;-88
2022/05/27 14:00:38;;;;;;;0.70;0.40;;;20.70;67.10;;;;;;10306622;23;20054;-61
2022/05/27 14:05:40;;;;;;;3.80;0.43;;;21.40;68.50;;;;;;10335566;28;20111;-61
2022/05/27 14:10:43;;;;;;;0.95;0.40;;;21.40;65.60;;;;;;10330677;28;20382;-61
2022/05/27 14:15:44;;;;;;;1.27;0.52;;;21.50;64.70;;;;;;10331975;28;20120;-61
2022/05/27 14:26:07;;;;;;;1.42;0.80;;;21.30;64.50;;;;;;10323086;28;20137;-60
2022/05/27 14:31:19;;;;;;;1.60;0.43;;;21.60;63.20;;;;;;10323924;28;20507;-60
2022/05/27 14:36:24;;;;;;;2.70;0.60;;;21.70;63.40;;;;;;10325193;28;20038;-60
2022/05/27 14:41:37;;;;;;;3.95;0.80;;;22.50;65.90;;;;;;10323677;28;20136;-60
2022/05/27 14:46:58;;;;;;;4.40;0.85;;;23.10;65.50;;;;;;10320485;28;20066;-60
2022/05/27 14:52:34;;;;;;;0.70;0.47;;;23.40;62.80;;;;;;10315598;28;20074;-60
2022/05/27 14:57:42;;;;;;;3.35;0.47;;;24.00;60.00;;;;;;10320842;28;20042;-60
2022/05/27 15:02:45;;;;;;;1.15;0.30;;;24.10;55.90;;;;;;10326673;28;20899;-59
2022/05/27 15:07:53;;;;;;;0.88;0.40;;;23.90;53.90;;;;;;10329171;28;20049;-59
2022/05/27 15:12:55;;;;;;;1.45;0.50;;;23.10;53.40;;;;;;10328914;28;20081;-59
2022/05/27 15:18:27;;;;;;;0.63;0.35;;;23.10;53.90;;;;;;10340563;28;20092;-60
2022/05/27 15:23:34;;;;;;;0.98;0.40;;;22.80;53.60;;;;;;10349878;28;20132;-59
2022/05/27 15:34:02;;;;;;;3.50;0.32;;;21.20;57.80;;;;;;10350508;28;20049;-61
2022/05/27 15:39:04;;;;;;;0.65;0.30;;;21.10;57.90;;;;;;10334217;28;20118;-62
2022/05/27 15:44:13;;;;;;;1.35;0.30;;;21.70;53.20;;;;;;10338819;28;20047;-59
2022/05/27 15:49:14;;;;;;;1.67;0.20;;;22.30;52.20;;;;;;10347302;28;20055;-62
2022/05/27 15:54:17;;;;;;;1.13;0.30;;;22.70;50.90;;;;;;10337665;28;20051;-61
2022/05/27 15:59:19;;;;;;;1.70;0.22;;;22.40;49.90;;;;;;10347067;28;20512;-61
2022/05/27 16:04:20;;;;;;;2.45;0.30;;;22.60;48.80;;;;;;10349619;28;20046;-61
2022/05/27 16:09:22;;;;;;;0.43;0.20;;;22.60;49.80;;;;;;10330668;28;20050;-61
2022/05/27 16:14:26;;;;;;;0.30;0.20;;;22.50;50.50;;;;;;10335054;28;20050;-61
2022/05/27 16:19:28;;;;;;;1.38;0.20;;;23.40;49.70;;;;;;10338048;28;20539;-60
2022/05/27 16:24:30;;;;;;;5.07;0.30;;;22.80;46.80;;;;;;10345544;28;20104;-60
2022/05/27 16:29:31;;;;;;;1.10;0.20;;;22.70;49.90;;;;;;10340079;28;20054;-60
2022/05/27 16:34:34;;;;;;;2.92;0.30;;;22.60;50.40;;;;;;10354253;28;20119;-60
2022/05/27 16:39:36;;;;;;;0.88;0.30;;;22.10;50.30;;;;;;10327425;28;20058;-60
2022/05/27 16:44:37;;;;;;;5.28;0.30;;;22.20;52.50;;;;;;10315301;28;20046;-60
2022/05/27 16:49:40;;;;;;;1.95;0.30;;;21.50;51.20;;;;;;10325699;28;20057;-60
2022/05/27 16:54:42;;;;;;;2.17;0.30;;;21.50;51.60;;;;;;10330760;28;20345;-64
2022/05/27 16:59:44;;;;;;;3.70;0.40;;;21.40;53.20;;;;;;10330300;28;20055;-64
2022/05/27 17:04:45;;;;;;;3.53;0.40;;;21.90;51.60;;;;;;10333173;28;20104;-63
2022/05/27 17:09:48;;;;;;;4.38;0.30;;;21.70;51.50;;;;;;10331543;28;20493;-64
2022/05/27 17:14:50;;;;;;;5.88;0.30;;;21.90;52.20;;;;;;10331982;28;20047;-65
2022/05/27 17:19:52;;;;;;;0.68;0.30;;;22.10;51.10;;;;;;10334044;28;20508;-65
2022/05/27 17:24:54;;;;;;;1.20;0.30;;;21.70;51.20;;;;;;10330131;28;20054;-65
2022/05/27 17:29:55;;;;;;;1.38;0.30;;;21.90;51.20;;;;;;10335963;28;20046;-64
2022/05/27 17:34:57;;;;;;;2.05;0.20;;;21.90;50.90;;;;;;10335579;28;20057;-67
2022/05/27 17:40:03;;;;;;;4.28;0.50;;;21.60;50.40;;;;;;10329889;28;20053;-66
2022/05/27 17:45:06;;;;;;;5.07;1.02;;;21.50;50.60;;;;;;10334548;28;20057;-65
2022/05/27 17:55:34;;;;;;;2.28;0.50;;;20.90;51.00;;;;;;10333634;28;20059;-65
2022/05/27 18:00:38;;;;;;;2.67;0.40;;;20.80;50.60;;;;;;10336018;28;20604;-66
2022/05/27 18:05:40;;;;;;;0.57;0.30;;;20.90;50.50;;;;;;10332503;28;20381;-65
2022/05/27 18:10:42;;;;;;;3.10;0.40;;;20.40;50.70;;;;;;10336775;28;20054;-64
2022/05/27 18:15:44;;;;;;;5.95;0.40;;;19.90;52.70;;;;;;10334738;28;20050;-65
2022/05/27 18:20:46;;;;;;;3.63;0.40;;;19.50;53.00;;;;;;10326826;28;20058;-65
2022/05/27 18:25:48;;;;;;;4.28;1.08;;;19.20;53.80;;;;;;10332147;28;20287;-65
2022/05/27 18:30:50;;;;;;;2.17;0.40;;;18.80;54.50;;;;;;10333350;28;20058;-67
2022/05/27 18:35:52;;;;;;;6.22;0.57;;;18.80;55.10;;;;;;10330228;28;20058;-66
2022/05/27 18:40:53;;;;;;;4.95;0.52;;;18.50;54.50;;;;;;10334535;28;20057;-65
2022/05/27 18:45:55;;;;;;;2.00;0.40;;;18.40;55.40;;;;;;10335148;28;20057;-65
2022/05/27 18:50:57;;;;;;;5.47;0.43;;;18.20;57.20;;;;;;10335382;28;20064;-66
2022/05/27 18:55:59;;;;;;;6.18;0.70;;;17.90;57.70;;;;;;10331939;28;20578;-66
2022/05/27 19:01:00;;;;;;;2.60;0.50;;;17.70;58.60;;;;;;10329939;28;20104;-66
2022/05/27 19:06:03;;;;;;;7.78;0.60;;;17.50;59.00;;;;;;10333506;28;20133;-66
2022/05/27 19:11:08;;;;;;;0.70;0.40;;;17.40;59.50;;;;;;10327769;28;20061;-66
2022/05/27 19:16:13;;;;;;;3.83;0.82;;;17.20;59.90;;;;;;10339594;28;20050;-65
2022/05/27 19:21:18;;;;;;;3.38;0.63;;;17.10;60.40;;;;;;10331676;28;20053;-66
2022/05/27 19:26:24;;;;;;;3.05;0.38;;;17.00;60.70;;;;;;10325565;28;20052;-67
2022/05/27 19:31:26;;;;;;;3.35;0.38;;;16.80;61.30;;;;;;10329771;28;20076;-66
2022/05/27 19:36:28;;;;;;;1.55;0.40;;;16.70;61.20;;;;;;10327876;28;20050;-65
2022/05/27 19:41:30;;;;;;;4.47;0.65;;;16.60;61.20;;;;;;10331055;28;20108;-66
2022/05/27 19:46:32;;;;;;;4.97;0.45;;;16.40;61.40;;;;;;10327893;28;20050;-67
2022/05/27 19:51:39;;;;;;;6.35;0.57;;;16.30;61.60;;;;;;10330920;28;20054;-66
2022/05/27 19:56:41;;;;;;;3.83;0.38;;;16.20;61.20;;;;;;10334588;28;20060;-65
2022/05/27 20:07:05;;;;;;;1.20;0.40;;;16.00;61.20;;;;;;10328492;28;20050;-57
2022/05/27 20:12:08;;;;;;;7.70;0.68;;;15.90;61.70;;;;;;10330942;28;20046;-57
2022/05/27 20:17:10;;;;;;;1.30;0.38;;;15.70;62.10;;;;;;10328851;28;20061;-56
2022/05/27 20:22:15;;;;;;;1.52;0.50;;;15.60;62.60;;;;;;10327174;28;20571;-57
2022/05/27 20:27:18;;;;;;;1.70;0.30;;;15.60;63.30;;;;;;10329163;28;20041;-56
2022/05/27 20:32:20;;;;;;;2.20;0.40;;;15.40;63.70;;;;;;10337188;28;20120;-59
2022/05/27 20:37:22;;;;;;;3.15;0.30;;;15.40;63.80;;;;;;10339468;28;20046;-57
2022/05/27 20:42:26;;;;;;;6.63;0.70;;;15.20;63.60;;;;;;10334118;28;20057;-57
2022/05/27 20:47:28;;;;;;;2.17;0.50;;;15.10;63.70;;;;;;10337126;28;20045;-58
2022/05/27 20:52:29;;;;;;;2.92;0.47;;;15.00;64.10;;;;;;10340808;28;20116;-58
2022/05/27 20:57:32;;;;;;;8.13;0.75;;;14.80;65.00;;;;;;10330901;28;20050;-57
2022/05/27 21:02:34;;;;;;;5.05;0.40;;;14.70;64.90;;;;;;10334152;28;20050;-57
2022/05/27 21:07:36;;;;;;;5.18;0.30;;;14.60;65.50;;;;;;10330384;28;20062;-56
2022/05/27 21:12:38;;;;;;;3.25;0.52;;;14.50;66.20;;;;;;10336717;28;20129;-57
2022/05/27 21:17:39;;;;;;;3.70;0.38;;;14.40;66.70;;;;;;10334588;28;20750;-56
2022/05/27 21:22:41;;;;;;;3.40;0.68;;;14.30;67.50;;;;;;10326875;28;20117;-56
2022/05/27 21:27:42;;;;;;;6.95;0.60;;;14.20;68.00;;;;;;10335682;28;20124;-57
2022/05/27 21:32:44;;;;;;;2.42;0.40;;;14.10;68.60;;;;;;10334947;28;20069;-56
2022/05/27 21:37:46;;;;;;;5.15;0.30;;;14.00;69.00;;;;;;10331981;28;20054;-56
2022/05/27 21:43:08;;;;;;;3.67;0.30;;;13.90;69.40;;;;;;10333403;28;20101;-57
2022/05/27 21:48:10;;;;;;;8.10;0.47;;;13.80;69.50;;;;;;10331124;28;20048;-56
2022/05/27 21:53:12;;;;;;;4.75;0.70;;;13.80;70.50;;;;;;10331455;28;20053;-56
2022/05/27 21:58:14;;;;;;;8.88;1.77;;;13.70;70.20;;;;;;10332015;28;20045;-56
2022/05/27 22:03:16;;;;;;;6.65;0.52;;;13.60;70.00;;;;;;10338814;28;20073;-57
2022/05/27 22:08:18;;;;;;;5.53;0.50;;;13.50;70.10;;;;;;10333240;28;20101;-56
2022/05/27 22:13:20;;;;;;;4.80;0.40;;;13.50;70.30;;;;;;10331873;28;20103;-58
2022/05/27 22:18:29;;;;;;;3.80;0.40;;;13.50;70.70;;;;;;10334831;28;20503;-56
2022/05/27 22:23:33;;;;;;;5.50;0.38;;;13.40;71.10;;;;;;10330748;28;20473;-56
2022/05/27 22:28:35;;;;;;;3.53;0.30;;;13.40;71.00;;;;;;10329206;28;20366;-56
2022/05/27 22:33:37;;;;;;;2.40;0.32;;;13.40;69.90;;;;;;10331309;28;20085;-57
2022/05/27 22:38:41;;;;;;;3.95;0.30;;;13.30;70.60;;;;;;10327860;28;20768;-57
2022/05/27 22:43:43;;;;;;;1.85;0.30;;;13.30;70.00;;;;;;10332007;28;20120;-56
2022/05/27 22:48:45;;;;;;;5.97;0.40;;;13.20;72.30;;;;;;10328922;28;20053;-57
2022/05/27 22:53:46;;;;;;;4.18;0.30;;;13.10;70.80;;;;;;10326093;28;20059;-56
2022/05/27 22:58:48;;;;;;;6.88;0.30;;;13.10;71.20;;;;;;10331107;28;20440;-56
2022/05/27 23:03:50;;;;;;;7.00;0.25;;;13.00;71.90;;;;;;10329999;28;20105;-56
2022/05/27 23:08:52;;;;;;;5.00;0.38;;;12.90;72.20;;;;;;10326476;28;20101;-56
2022/05/27 23:19:14;;;;;;;7.93;0.50;;;12.90;73.10;;;;;;10331259;28;20039;-57
2022/05/27 23:24:16;;;;;;;2.28;0.25;;;12.90;73.50;;;;;;10332456;28;20082;-57
2022/05/27 23:29:18;;;;;;;2.53;0.20;;;12.70;73.80;;;;;;10327573;28;20103;-57
2022/05/27 23:34:20;;;;;;;3.65;0.50;;;12.70;74.30;;;;;;10323712;28;20303;-57
2022/05/27 23:39:22;;;;;;;2.28;0.20;;;12.70;75.20;;;;;;10330448;28;20045;-56
2022/05/27 23:44:23;;;;;;;5.57;0.20;;;12.60;75.70;;;;;;10327454;28;20073;-56
2022/05/27 23:49:28;;;;;;;6.18;0.30;;;12.60;75.20;;;;;;10328094;28;20257;-58
2022/05/27 23:54:30;;;;;;;1.98;0.28;;;12.50;76.20;;;;;;10329080;28;20057;-58
2022/05/27 23:59:31;;;;;;;4.82;0.32;;;12.50;76.60;;;;;;10325559;28;20049;-57
